Time;durP1;ratioP1;P1;durP2;ratioP2;P2;SDS_P1;SDS_P2;PMS_P1;PMS_P2;Temp;Humidity;BMP_temperature;BMP_pressure;BME280_temperature;BME280_humidity;BME280_pressure;Samples;Min_cycle;Max_cycle;Signal;HPM_P1;HPM_P2
2023/01/02 00:02:22;;;;;;;13.50;1.77;;;;;;;;;;5047709;28;20111;-96
2023/01/02 00:04:47;;;;;;;14.90;1.90;;;;;;;;;;5046758;28;20470;-96
2023/01/02 00:07:20;;;;;;;17.05;2.40;;;;;;;;;;5047563;28;20268;-96
2023/01/02 00:09:48;;;;;;;19.60;2.78;;;;;;;;;;5045263;28;20017;-96
2023/01/02 00:12:35;;;;;;;15.98;2.30;;;;;;;;;;5048762;28;20021;-96
2023/01/02 00:15:10;;;;;;;;;;;;;;;;;;;;;
2023/01/02 00:17:47;;;;;;;13.75;2.17;;;;;;;;;;5064868;28;20117;-96
2023/01/02 00:20:12;;;;;;;19.95;3.22;;;;;;;;;;5044826;28;20021;-96
2023/01/02 00:22:41;;;;;;;18.13;2.13;;;;;;;;;;5044764;28;20027;-96
2023/01/02 00:25:14;;;;;;;13.07;1.75;;;;;;;;;;5045470;28;20029;-96
2023/01/02 00:30:38;;;;;;;13.13;2.13;;;;;;;;;;5063528;28;20467;-95
2023/01/02 00:33:06;;;;;;;9.65;1.55;;;;;;;;;;5045014;28;20028;-96
2023/01/02 00:35:32;;;;;;;16.23;2.15;;;;;;;;;;5043997;28;20356;-96
2023/01/02 00:37:57;;;;;;;10.80;2.25;;;;;;;;;;5041726;28;20808;-96
2023/01/02 00:40:23;;;;;;;11.68;1.92;;;;;;;;;;5042016;28;20054;-96
2023/01/02 00:42:48;;;;;;;14.65;2.28;;;;;;;;;;5042155;28;20017;-96
2023/01/02 00:45:13;;;;;;;21.23;2.08;;;;;;;;;;5042050;28;20474;-94
2023/01/02 00:47:39;;;;;;;18.73;2.20;;;;;;;;;;5041872;28;20048;-96
2023/01/02 00:50:05;;;;;;;21.08;2.53;;;;;;;;;;5042066;28;20364;-96
2023/01/02 00:52:30;;;;;;;14.35;2.10;;;;;;;;;;5041354;28;20028;-96
2023/01/02 00:54:56;;;;;;;24.77;2.22;;;;;;;;;;5041732;28;20032;-96
2023/01/02 00:57:21;;;;;;;18.02;2.22;;;;;;;;;;5041364;28;20024;-96
2023/01/02 00:59:46;;;;;;;8.43;1.85;;;;;;;;;;5042494;28;20013;-96
2023/01/02 01:02:12;;;;;;;15.63;2.30;;;;;;;;;;5042510;28;20021;-96
2023/01/02 01:04:37;;;;;;;20.98;2.35;;;;;;;;;;5040856;28;20116;-96
2023/01/02 01:07:03;;;;;;;20.80;2.70;;;;;;;;;;5038634;28;20048;-96
2023/01/02 01:09:28;;;;;;;16.75;2.65;;;;;;;;;;5039513;28;20025;-95
2023/01/02 01:11:54;;;;;;;14.90;2.97;;;;;;;;;;5039226;28;20017;-95
2023/01/02 01:14:22;;;;;;;18.25;2.08;;;;;;;;;;5040783;28;20031;-95
2023/01/02 01:16:48;;;;;;;16.33;1.73;;;;;;;;;;5040069;28;20035;-96
2023/01/02 01:19:13;;;;;;;17.83;2.35;;;;;;;;;;5039523;28;20024;-96
2023/01/02 01:21:39;;;;;;;17.65;2.58;;;;;;;;;;5040443;28;20052;-96
2023/01/02 01:24:04;;;;;;;16.73;2.72;;;;;;;;;;5040456;28;20036;-96
2023/01/02 01:26:30;;;;;;;16.98;2.35;;;;;;;;;;5040018;28;20024;-96
2023/01/02 01:28:55;;;;;;;15.50;2.30;;;;;;;;;;5040606;28;20115;-96
2023/01/02 01:31:21;;;;;;;18.42;2.20;;;;;;;;;;5040960;28;20099;-96
2023/01/02 01:33:47;;;;;;;12.98;1.90;;;;;;;;;;5040574;28;20033;-96
2023/01/02 01:36:14;;;;;;;17.30;2.33;;;;;;;;;;5040516;28;20017;-95
2023/01/02 01:38:40;;;;;;;12.55;2.55;;;;;;;;;;5040971;28;20032;-96
2023/01/02 01:41:05;;;;;;;10.35;1.75;;;;;;;;;;5040530;28;20105;-96
2023/01/02 01:43:37;;;;;;;12.05;1.58;;;;;;;;;;5040354;28;20028;-96
2023/01/02 01:46:05;;;;;;;15.82;2.38;;;;;;;;;;5040043;28;20028;-96
2023/01/02 01:48:31;;;;;;;9.00;2.20;;;;;;;;;;5040491;28;20029;-96
2023/01/02 01:50:56;;;;;;;14.13;1.80;;;;;;;;;;5039597;28;20494;-96
2023/01/02 01:53:22;;;;;;;12.68;2.10;;;;;;;;;;5040495;28;20121;-96
2023/01/02 01:55:53;;;;;;;16.95;2.45;;;;;;;;;;5039964;28;20017;-96
2023/01/02 01:58:28;;;;;;;21.17;1.85;;;;;;;;;;5039923;28;20021;-96
2023/01/02 02:00:55;;;;;;;22.77;2.40;;;;;;;;;;5039933;28;20021;-95
2023/01/02 02:03:23;;;;;;;7.20;1.52;;;;;;;;;;5039468;28;20090;-96
2023/01/02 02:05:48;;;;;;;16.95;2.35;;;;;;;;;;5038805;28;20041;-95
2023/01/02 02:08:14;;;;;;;10.93;1.33;;;;;;;;;;5038998;28;20024;-96
2023/01/02 02:10:40;;;;;;;14.63;1.60;;;;;;;;;;5039362;28;20080;-96
2023/01/02 02:13:05;;;;;;;21.40;3.78;;;;;;;;;;5038696;28;20383;-95
2023/01/02 02:15:38;;;;;;;9.65;1.58;;;;;;;;;;5038925;28;20025;-96
2023/01/02 02:18:04;;;;;;;21.95;2.80;;;;;;;;;;5039644;28;20013;-96
2023/01/02 02:20:31;;;;;;;21.05;2.65;;;;;;;;;;5039272;28;20028;-96
2023/01/02 02:23:15;;;;;;;17.42;2.13;;;;;;;;;;5039366;28;20075;-96
2023/01/02 02:25:59;;;;;;;16.85;2.25;;;;;;;;;;5038707;28;20020;-96
2023/01/02 02:28:37;;;;;;;13.45;2.00;;;;;;;;;;5038883;28;20057;-96
2023/01/02 02:31:02;;;;;;;14.55;1.85;;;;;;;;;;5038691;28;20025;-96
2023/01/02 02:33:40;;;;;;;15.57;2.58;;;;;;;;;;5038208;28;20028;-96
2023/01/02 02:36:06;;;;;;;16.10;2.10;;;;;;;;;;5022470;28;20021;-96
2023/01/02 02:38:33;;;;;;;17.33;3.58;;;;;;;;;;5018022;28;20484;-96
2023/01/02 02:41:02;;;;;;;18.55;2.40;;;;;;;;;;5017794;28;20030;-96
2023/01/02 02:43:32;;;;;;;12.70;2.42;;;;;;;;;;5017436;28;20110;-95
2023/01/02 02:46:00;;;;;;;12.38;2.42;;;;;;;;;;5017872;28;20017;-96
2023/01/02 02:48:44;;;;;;;12.43;1.75;;;;;;;;;;5018101;28;20018;-96
2023/01/02 02:51:14;;;;;;;20.52;2.40;;;;;;;;;;5017638;28;20021;-96
2023/01/02 02:53:42;;;;;;;9.95;2.45;;;;;;;;;;5017307;28;20037;-96
2023/01/02 02:56:09;;;;;;;14.00;1.60;;;;;;;;;;5017632;28;20228;-96
2023/01/02 02:58:35;;;;;;;18.02;1.80;;;;;;;;;;5016616;28;20082;-96
2023/01/02 03:01:05;;;;;;;15.75;2.13;;;;;;;;;;5017633;28;20112;-96
2023/01/02 03:03:31;;;;;;;13.95;2.03;;;;;;;;;;5017307;28;20183;-96
2023/01/02 03:06:02;;;;;;;17.27;2.25;;;;;;;;;;5017748;28;20072;-96
2023/01/02 03:08:32;;;;;;;22.13;2.30;;;;;;;;;;5017511;28;20025;-96
2023/01/02 03:10:59;;;;;;;18.70;2.00;;;;;;;;;;5016641;28;20022;-96
2023/01/02 03:13:25;;;;;;;18.08;2.78;;;;;;;;;;5016826;28;20044;-96
2023/01/02 03:15:53;;;;;;;15.82;1.42;;;;;;;;;;5016751;28;20021;-96
2023/01/02 03:18:36;;;;;;;19.15;3.00;;;;;;;;;;5016435;28;20462;-95
2023/01/02 03:21:06;;;;;;;12.48;1.73;;;;;;;;;;5015884;28;20117;-96
2023/01/02 03:23:34;;;;;;;17.23;3.08;;;;;;;;;;5016274;28;20025;-96
2023/01/02 03:26:00;;;;;;;16.15;1.85;;;;;;;;;;5016303;28;20033;-96
2023/01/02 03:28:26;;;;;;;8.65;1.90;;;;;;;;;;5016423;28;20100;-96
2023/01/02 03:30:53;;;;;;;13.02;2.35;;;;;;;;;;5015976;28;20025;-96
2023/01/02 03:33:26;;;;;;;11.15;1.83;;;;;;;;;;5016177;28;20022;-96
2023/01/02 03:35:57;;;;;;;10.75;2.08;;;;;;;;;;5016386;28;20029;-96
2023/01/02 03:38:45;;;;;;;13.00;2.15;;;;;;;;;;5016957;28;20018;-96
2023/01/02 03:41:17;;;;;;;16.15;1.90;;;;;;;;;;5005758;28;20029;-96
2023/01/02 03:43:44;;;;;;;13.98;2.03;;;;;;;;;;5016527;28;20014;-96
2023/01/02 03:46:16;;;;;;;20.92;2.97;;;;;;;;;;5016049;28;20018;-95
2023/01/02 03:48:49;;;;;;;16.92;1.60;;;;;;;;;;5016140;28;20021;-96
2023/01/02 03:51:14;;;;;;;12.88;1.60;;;;;;;;;;5016221;28;20367;-96
2023/01/02 03:53:40;;;;;;;16.63;2.42;;;;;;;;;;5016050;28;20030;-95
2023/01/02 03:56:20;;;;;;;15.60;2.15;;;;;;;;;;5016265;28;20446;-96
2023/01/02 03:58:49;;;;;;;20.80;2.17;;;;;;;;;;5016825;28;20025;-95
2023/01/02 04:01:20;;;;;;;24.10;2.75;;;;;;;;;;5016508;28;20018;-95
2023/01/02 04:03:51;;;;;;;9.75;1.70;;;;;;;;;;5017214;28;20438;-96
2023/01/02 04:06:19;;;;;;;8.90;1.70;;;;;;;;;;5016655;28;20026;-96
2023/01/02 04:08:47;;;;;;;13.43;1.70;;;;;;;;;;5017036;28;20088;-96
2023/01/02 04:11:14;;;;;;;12.63;1.63;;;;;;;;;;5020659;28;20017;-96
2023/01/02 04:13:45;;;;;;;10.38;2.08;;;;;;;;;;5020442;28;20063;-96
2023/01/02 04:16:14;;;;;;;16.07;1.60;;;;;;;;;;5019880;28;20049;-96
2023/01/02 04:18:45;;;;;;;11.77;1.60;;;;;;;;;;5020305;28;20061;-96
2023/01/02 04:21:12;;;;;;;15.33;1.37;;;;;;;;;;5018924;28;20021;-96
2023/01/02 04:23:39;;;;;;;4.95;1.15;;;;;;;;;;5020122;28;20022;-96
2023/01/02 04:26:08;;;;;;;11.50;2.65;;;;;;;;;;5020170;28;20112;-96
2023/01/02 04:28:34;;;;;;;15.23;2.50;;;;;;;;;;5020045;28;20502;-96
2023/01/02 04:30:59;;;;;;;16.20;1.55;;;;;;;;;;5020663;28;20021;-96
2023/01/02 04:33:25;;;;;;;13.80;2.03;;;;;;;;;;5021451;28;20459;-96
2023/01/02 04:35:51;;;;;;;10.90;1.75;;;;;;;;;;5021347;28;20026;-95
2023/01/02 04:38:16;;;;;;;11.52;2.40;;;;;;;;;;5021635;28;20430;-96
2023/01/02 04:40:41;;;;;;;11.20;1.77;;;;;;;;;;5021147;28;20026;-96
2023/01/02 04:43:13;;;;;;;19.88;2.35;;;;;;;;;;5021157;28;20018;-96
2023/01/02 04:45:38;;;;;;;13.13;1.63;;;;;;;;;;5020605;28;20040;-96
2023/01/02 04:48:04;;;;;;;16.73;1.95;;;;;;;;;;5020587;28;20483;-96
2023/01/02 04:50:29;;;;;;;21.13;2.03;;;;;;;;;;5021404;28;20025;-95
2023/01/02 04:52:54;;;;;;;11.73;1.20;;;;;;;;;;5020931;28;20048;-96
2023/01/02 04:55:20;;;;;;;10.35;2.88;;;;;;;;;;5020901;28;20029;-95
2023/01/02 04:57:45;;;;;;;11.38;2.28;;;;;;;;;;5021767;28;20489;-96
2023/01/02 05:00:10;;;;;;;8.10;1.20;;;;;;;;;;5021178;28;20491;-96
2023/01/02 05:02:36;;;;;;;21.40;2.08;;;;;;;;;;5021367;28;20377;-96
2023/01/02 05:05:02;;;;;;;8.23;1.88;;;;;;;;;;5021495;28;20072;-96
2023/01/02 05:07:28;;;;;;;9.05;1.42;;;;;;;;;;5021588;28;20018;-96
2023/01/02 05:09:53;;;;;;;6.53;1.15;;;;;;;;;;5020781;28;20025;-95
2023/01/02 05:12:18;;;;;;;10.63;1.60;;;;;;;;;;5020741;28;20474;-96
2023/01/02 05:14:44;;;;;;;8.07;1.30;;;;;;;;;;5020719;28;20171;-95
2023/01/02 05:17:09;;;;;;;8.57;1.30;;;;;;;;;;5020691;28;20497;-96
2023/01/02 05:19:34;;;;;;;22.17;1.90;;;;;;;;;;5020368;28;20033;-96
2023/01/02 05:24:44;;;;;;;17.70;2.78;;;;;;;;;;5037757;28;20091;-96
2023/01/02 05:27:09;;;;;;;14.35;2.70;;;;;;;;;;5019775;28;20013;-96
2023/01/02 05:29:34;;;;;;;16.40;2.08;;;;;;;;;;5020416;28;20026;-96
2023/01/02 05:32:00;;;;;;;13.55;2.13;;;;;;;;;;5020033;28;20028;-96
2023/01/02 05:34:25;;;;;;;12.02;2.35;;;;;;;;;;5020706;28;20387;-96
2023/01/02 05:36:50;;;;;;;21.85;3.70;;;;;;;;;;5020504;28;20071;-96
2023/01/02 05:39:16;;;;;;;10.73;2.05;;;;;;;;;;5021674;28;20088;-96
2023/01/02 05:41:41;;;;;;;10.13;3.20;;;;;;;;;;5020887;28;20094;-96
2023/01/02 05:44:07;;;;;;;25.23;3.17;;;;;;;;;;5020140;28;20025;-96
2023/01/02 05:46:33;;;;;;;11.52;2.53;;;;;;;;;;5020398;28;20017;-96
2023/01/02 05:48:58;;;;;;;16.92;2.75;;;;;;;;;;5020463;28;20233;-96
2023/01/02 05:51:23;;;;;;;23.10;3.38;;;;;;;;;;5020610;28;20190;-96
2023/01/02 05:53:49;;;;;;;18.02;2.63;;;;;;;;;;5020309;28;20573;-95
2023/01/02 05:56:16;;;;;;;24.77;5.40;;;;;;;;;;5020100;28;20021;-96
2023/01/02 05:58:42;;;;;;;24.40;4.45;;;;;;;;;;5020471;28;20025;-96
2023/01/02 06:01:09;;;;;;;16.83;3.22;;;;;;;;;;5020150;28;20014;-96
2023/01/02 06:03:35;;;;;;;15.35;3.05;;;;;;;;;;5020419;28;20021;-96
2023/01/02 06:06:04;;;;;;;9.60;2.88;;;;;;;;;;5020172;28;20092;-96
2023/01/02 06:08:30;;;;;;;10.77;3.33;;;;;;;;;;5019487;28;20024;-96
2023/01/02 06:10:55;;;;;;;16.05;2.78;;;;;;;;;;5020098;28;20025;-96
2023/01/02 06:13:20;;;;;;;15.93;2.80;;;;;;;;;;5020344;28;20017;-96
2023/01/02 06:15:46;;;;;;;14.85;3.08;;;;;;;;;;5019523;28;20092;-96
2023/01/02 06:18:11;;;;;;;16.35;3.38;;;;;;;;;;5019597;28;20390;-96
2023/01/02 06:20:37;;;;;;;17.67;3.65;;;;;;;;;;5018935;28;20021;-96
2023/01/02 06:23:02;;;;;;;15.85;2.92;;;;;;;;;;5019431;28;20041;-96
2023/01/02 06:25:27;;;;;;;23.27;4.20;;;;;;;;;;5019464;28;20029;-95
2023/01/02 06:27:53;;;;;;;19.25;3.00;;;;;;;;;;5018105;28;20057;-96
2023/01/02 06:30:18;;;;;;;19.73;4.25;;;;;;;;;;5018118;28;20483;-96
2023/01/02 06:32:43;;;;;;;18.17;3.90;;;;;;;;;;5017493;28;20047;-96
2023/01/02 06:35:09;;;;;;;15.05;3.72;;;;;;;;;;5017680;28;20033;-96
2023/01/02 06:37:34;;;;;;;18.95;4.38;;;;;;;;;;5017480;28;20487;-96
2023/01/02 06:39:59;;;;;;;10.20;3.38;;;;;;;;;;5018057;28;20022;-96
2023/01/02 06:42:25;;;;;;;13.75;4.10;;;;;;;;;;5017804;28;20109;-96
2023/01/02 06:44:50;;;;;;;17.25;4.28;;;;;;;;;;5018494;28;20021;-96
2023/01/02 06:47:16;;;;;;;13.88;3.53;;;;;;;;;;5018286;28;20018;-96
2023/01/02 06:49:41;;;;;;;14.65;3.50;;;;;;;;;;5018105;28;20052;-96
2023/01/02 06:52:06;;;;;;;10.40;3.58;;;;;;;;;;5019369;28;20102;-96
2023/01/02 06:54:32;;;;;;;8.70;2.88;;;;;;;;;;5019874;28;20037;-96
2023/01/02 06:57:00;;;;;;;9.38;3.17;;;;;;;;;;5020575;28;20057;-96
2023/01/02 06:59:25;;;;;;;11.48;4.05;;;;;;;;;;5021985;28;20029;-96
2023/01/02 07:01:51;;;;;;;14.65;3.47;;;;;;;;;;5021417;28;20018;-96
2023/01/02 07:04:16;;;;;;;12.98;3.65;;;;;;;;;;5021513;28;20375;-96
2023/01/02 07:06:42;;;;;;;17.25;3.08;;;;;;;;;;5022121;28;20017;-96
2023/01/02 07:09:07;;;;;;;11.40;3.63;;;;;;;;;;5022126;28;20111;-96
2023/01/02 07:11:34;;;;;;;20.77;4.85;;;;;;;;;;5021896;28;20014;-96
2023/01/02 07:14:00;;;;;;;8.90;3.88;;;;;;;;;;5022425;28;20036;-96
2023/01/02 07:16:26;;;;;;;16.83;5.85;;;;;;;;;;5022075;28;20013;-96
2023/01/02 07:18:52;;;;;;;15.40;4.75;;;;;;;;;;5021665;28;20028;-96
2023/01/02 07:21:20;;;;;;;20.58;6.72;;;;;;;;;;5022934;28;20017;-96
2023/01/02 07:23:48;;;;;;;21.58;6.38;;;;;;;;;;5022252;28;20021;-96
2023/01/02 07:26:16;;;;;;;23.90;7.05;;;;;;;;;;5019520;28;20021;-95
2023/01/02 07:28:42;;;;;;;23.90;7.85;;;;;;;;;;5020384;28;20491;-96
2023/01/02 07:31:12;;;;;;;34.85;9.63;;;;;;;;;;5020513;28;20039;-96
2023/01/02 07:33:37;;;;;;;20.67;7.97;;;;;;;;;;5021389;28;20026;-96
2023/01/02 07:36:04;;;;;;;23.27;8.55;;;;;;;;;;5020377;28;20029;-96
2023/01/02 07:38:30;;;;;;;31.83;10.55;;;;;;;;;;5020947;28;20021;-96
2023/01/02 07:40:55;;;;;;;34.60;10.15;;;;;;;;;;5021244;28;20032;-96
2023/01/02 07:43:21;;;;;;;32.42;10.02;;;;;;;;;;5019547;28;20356;-96
2023/01/02 07:45:47;;;;;;;33.38;10.15;;;;;;;;;;5023601;28;20469;-96
2023/01/02 07:48:12;;;;;;;36.20;10.43;;;;;;;;;;5025176;28;20049;-96
2023/01/02 07:50:38;;;;;;;36.38;10.95;;;;;;;;;;5024737;28;20445;-96
2023/01/02 07:53:04;;;;;;;33.58;10.57;;;;;;;;;;5025439;28;20022;-96
2023/01/02 07:55:29;;;;;;;19.10;9.45;;;;;;;;;;5024167;28;20394;-96
2023/01/02 07:57:55;;;;;;;20.10;8.73;;;;;;;;;;5024582;28;20095;-96
2023/01/02 08:00:20;;;;;;;31.85;11.20;;;;;;;;;;5025078;28;20117;-96
2023/01/02 08:02:48;;;;;;;22.25;9.13;;;;;;;;;;5024856;28;20021;-96
2023/01/02 08:05:15;;;;;;;17.52;7.57;;;;;;;;;;5024789;28;20109;-96
2023/01/02 08:07:43;;;;;;;22.40;8.52;;;;;;;;;;5028782;28;20021;-96
2023/01/02 08:10:19;;;;;;;23.08;9.13;;;;;;;;;;5027652;28;20084;-96
2023/01/02 08:12:47;;;;;;;16.13;9.27;;;;;;;;;;5026759;28;20022;-96
2023/01/02 08:15:15;;;;;;;20.08;8.38;;;;;;;;;;5026906;28;20025;-96
2023/01/02 08:17:40;;;;;;;24.17;8.90;;;;;;;;;;5029802;28;20032;-96
2023/01/02 08:20:14;;;;;;;20.55;8.77;;;;;;;;;;5030826;28;20030;-96
2023/01/02 08:22:39;;;;;;;23.58;9.77;;;;;;;;;;5032114;28;20030;-96
2023/01/02 08:25:29;;;;;;;18.80;8.50;;;;;;;;;;5032477;28;20039;-96
2023/01/02 08:28:11;;;;;;;21.60;8.15;;;;;;;;;;5050978;28;20093;-96
2023/01/02 08:30:49;;;;;;;;;;;;;;;;;;;;;
2023/01/02 08:33:27;;;;;;;19.88;8.65;;;;;;;;;;5054338;28;19933;-96
2023/01/02 08:35:59;;;;;;;23.88;9.35;;;;;;;;;;5037312;28;20017;-96
2023/01/02 08:39:02;;;;;;;18.65;8.52;;;;;;;;;;5038870;28;20034;-96
2023/01/02 08:41:59;;;;;;;;;;;;;;;;;;;;;
2023/01/02 08:44:33;;;;;;;19.58;9.02;;;;;;;;;;5055272;28;20050;-96
2023/01/02 08:47:26;;;;;;;21.80;10.13;;;;;;;;;;5038084;28;20052;-96
2023/01/02 08:50:15;;;;;;;24.83;9.38;;;;;;;;;;5037836;28;20017;-96
2023/01/02 08:52:56;;;;;;;26.58;9.95;;;;;;;;;;5037432;28;20030;-96
2023/01/02 08:55:39;;;;;;;17.48;8.82;;;;;;;;;;5036716;28;20068;-96
2023/01/02 08:58:19;;;;;;;19.83;8.57;;;;;;;;;;5037403;28;20093;-96
2023/01/02 09:00:54;;;;;;;22.40;9.27;;;;;;;;;;5043269;28;20077;-96
2023/01/02 09:03:22;;;;;;;21.42;10.30;;;;;;;;;;5042360;28;20018;-96
2023/01/02 09:06:00;;;;;;;;;;;;;;;;;;;;;
2023/01/02 09:08:35;;;;;;;23.42;10.55;;;;;;;;;;5060150;28;20508;-96
2023/01/02 09:11:16;;;;;;;20.65;9.68;;;;;;;;;;5042800;28;20013;-96
2023/01/02 09:13:50;;;;;;;19.92;10.27;;;;;;;;;;5042688;28;20051;-96
2023/01/02 09:16:19;;;;;;;21.40;10.38;;;;;;;;;;5042330;28;20044;-96
2023/01/02 09:18:45;;;;;;;18.20;10.27;;;;;;;;;;5042935;28;20010;-96
2023/01/02 09:21:10;;;;;;;21.77;10.35;;;;;;;;;;5042728;28;20010;-96
2023/01/02 09:23:36;;;;;;;16.17;9.20;;;;;;;;;;5042501;28;20032;-96
2023/01/02 09:26:05;;;;;;;21.88;9.18;;;;;;;;;;5042031;28;20061;-96
2023/01/02 09:28:32;;;;;;;18.83;9.43;;;;;;;;;;5042394;28;19998;-96
2023/01/02 09:30:57;;;;;;;21.63;10.27;;;;;;;;;;5042369;28;20044;-96
2023/01/02 09:33:23;;;;;;;22.85;9.07;;;;;;;;;;5042183;28;20006;-96
2023/01/02 09:35:49;;;;;;;15.60;9.30;;;;;;;;;;5041980;28;20017;-96
2023/01/02 09:38:15;;;;;;;14.35;8.23;;;;;;;;;;5042237;28;20030;-95
2023/01/02 09:40:49;;;;;;;15.10;9.00;;;;;;;;;;5041356;28;20015;-95
2023/01/02 09:43:16;;;;;;;19.77;9.20;;;;;;;;;;5042047;28;20020;-96
2023/01/02 09:45:43;;;;;;;18.70;8.85;;;;;;;;;;5041210;28;20024;-94
2023/01/02 09:48:15;;;;;;;17.58;9.00;;;;;;;;;;5038753;28;20030;-95
2023/01/02 09:50:40;;;;;;;;;;;;;;;;;;5039045;28;20028;-94
2023/01/02 09:53:06;;;;;;;16.63;8.35;;;;;;;;;;5037529;28;19905;-95
2023/01/02 09:55:58;;;;;;;16.50;8.48;;;;;;;;;;5035618;28;20036;-94
2023/01/02 09:58:23;;;;;;;13.10;7.97;;;;;;;;;;4997294;28;20053;-96
2023/01/02 10:00:49;;;;;;;12.93;7.10;;;;;;;;;;5035288;28;20029;-95
2023/01/02 10:03:14;;;;;;;13.50;7.97;;;;;;;;;;5036259;28;20017;-93
2023/01/02 10:05:40;;;;;;;14.65;8.40;;;;;;;;;;5036738;28;20215;-93
2023/01/02 10:08:10;;;;;;;13.38;7.63;;;;;;;;;;5038512;28;20109;-95
2023/01/02 10:10:40;;;;;;;10.70;7.28;;;;;;;;;;5038502;28;20056;-95
2023/01/02 10:13:05;;;;;;;12.68;7.63;;;;;;;;;;5036303;28;20017;-94
2023/01/02 10:15:31;;;;;;;18.40;7.13;;;;;;;;;;5034565;28;20040;-93
2023/01/02 10:18:05;;;;;;;15.98;8.38;;;;;;;;;;5032108;28;20009;-94
2023/01/02 10:20:41;;;;;;;10.05;6.70;;;;;;;;;;5035374;28;20041;-93
2023/01/02 10:23:09;;;;;;;10.80;5.82;;;;;;;;;;5036869;28;20017;-94
2023/01/02 10:25:55;;;;;;;11.93;6.70;;;;;;;;;;5036017;28;20033;-94
2023/01/02 10:28:23;;;;;;;13.02;5.80;;;;;;;;;;5035497;28;20048;-95
2023/01/02 10:30:58;;;;;;;10.32;5.97;;;;;;;;;;5036814;28;20025;-93
2023/01/02 10:33:44;;;;;;;12.38;6.30;;;;;;;;;;5036244;28;20025;-95
2023/01/02 10:36:22;;;;;;;12.35;5.78;;;;;;;;;;5037694;28;20044;-93
2023/01/02 10:38:47;;;;;;;10.88;5.90;;;;;;;;;;5036908;28;20029;-95
2023/01/02 10:41:12;;;;;;;12.88;6.10;;;;;;;;;;5035035;28;20037;-94
2023/01/02 10:43:38;;;;;;;11.15;6.70;;;;;;;;;;5035750;28;20180;-94
2023/01/02 10:46:03;;;;;;;11.77;6.07;;;;;;;;;;5035170;28;20029;-93
2023/01/02 10:48:31;;;;;;;12.93;6.35;;;;;;;;;;5036179;28;20025;-94
2023/01/02 10:50:57;;;;;;;10.93;5.95;;;;;;;;;;5036037;28;20021;-95
2023/01/02 10:53:33;;;;;;;16.65;6.75;;;;;;;;;;5035039;28;20017;-93
2023/01/02 10:56:18;;;;;;;13.35;6.63;;;;;;;;;;5035138;28;20041;-93
2023/01/02 10:58:48;;;;;;;8.27;5.57;;;;;;;;;;5034035;28;20534;-94
2023/01/02 11:01:18;;;;;;;6.80;5.00;;;;;;;;;;5034136;28;20113;-95
2023/01/02 11:03:48;;;;;;;6.82;4.32;;;;;;;;;;5027018;28;20025;-95
2023/01/02 11:06:21;;;;;;;8.75;3.80;;;;;;;;;;5025998;28;20025;-96
2023/01/02 11:09:00;;;;;;;10.27;3.90;;;;;;;;;;5033317;28;20073;-93
2023/01/02 11:11:26;;;;;;;9.15;3.42;;;;;;;;;;5034489;28;20041;-95
2023/01/02 11:13:55;;;;;;;8.02;4.53;;;;;;;;;;5035074;28;20041;-93
2023/01/02 11:16:21;;;;;;;8.18;4.18;;;;;;;;;;5035787;28;20017;-95
2023/01/02 11:18:52;;;;;;;8.80;4.38;;;;;;;;;;5034149;28;20021;-94
2023/01/02 11:21:45;;;;;;;11.82;4.80;;;;;;;;;;5034555;28;20017;-94
2023/01/02 11:24:15;;;;;;;8.32;4.40;;;;;;;;;;5033070;28;20037;-94
2023/01/02 11:26:41;;;;;;;10.45;4.35;;;;;;;;;;5034302;28;20027;-94
2023/01/02 11:29:08;;;;;;;6.32;3.28;;;;;;;;;;5035806;28;19998;-91
2023/01/02 11:31:34;;;;;;;11.70;4.15;;;;;;;;;;5035527;28;20009;-95
2023/01/02 11:34:09;;;;;;;3.30;2.42;;;;;;;;;;5036369;28;20060;-93
2023/01/02 11:36:35;;;;;;;5.43;2.83;;;;;;;;;;5035094;28;20104;-92
2023/01/02 11:39:17;;;;;;;4.85;2.55;;;;;;;;;;5035488;28;20040;-94
2023/01/02 11:44:41;;;;;;;4.30;1.20;;;;;;;;;;5052555;28;20052;-93
2023/01/02 11:47:09;;;;;;;3.10;1.40;;;;;;;;;;5036479;28;20051;-94
2023/01/02 11:49:41;;;;;;;2.83;1.52;;;;;;;;;;5035290;28;20025;-95
2023/01/02 11:52:11;;;;;;;2.15;1.00;;;;;;;;;;5036801;28;20018;-95
2023/01/02 11:54:44;;;;;;;2.97;1.33;;;;;;;;;;5035612;28;20038;-93
2023/01/02 11:57:17;;;;;;;4.28;1.20;;;;;;;;;;5036759;28;20573;-92
2023/01/02 11:59:45;;;;;;;2.42;1.27;;;;;;;;;;5040092;28;20022;-96
2023/01/02 12:02:13;;;;;;;1.98;1.30;;;;;;;;;;5038960;28;20048;-95
2023/01/02 12:04:39;;;;;;;3.33;1.73;;;;;;;;;;5027304;28;20055;-95
2023/01/02 12:07:23;;;;;;;3.10;1.33;;;;;;;;;;5021263;28;20081;-95
2023/01/02 12:09:52;;;;;;;4.53;1.90;;;;;;;;;;5021357;28;20033;-95
2023/01/02 12:12:17;;;;;;;3.30;1.17;;;;;;;;;;5024276;28;20475;-96
2023/01/02 12:15:01;;;;;;;2.80;1.55;;;;;;;;;;5019291;28;20040;-96
2023/01/02 12:17:33;;;;;;;2.80;1.10;;;;;;;;;;5020301;28;20018;-96
2023/01/02 12:20:04;;;;;;;1.13;0.93;;;;;;;;;;5024455;28;20021;-95
2023/01/02 12:22:42;;;;;;;1.67;0.80;;;;;;;;;;5026229;28;20028;-96
2023/01/02 12:25:20;;;;;;;1.40;0.60;;;;;;;;;;5019915;28;20026;-96
2023/01/02 12:27:51;;;;;;;1.27;0.70;;;;;;;;;;5019357;28;20028;-96
2023/01/02 12:30:20;;;;;;;3.03;0.70;;;;;;;;;;5019267;28;20022;-96
2023/01/02 12:32:46;;;;;;;3.08;1.02;;;;;;;;;;5022173;28;20025;-96
2023/01/02 12:35:14;;;;;;;2.50;0.80;;;;;;;;;;5023113;28;20550;-96
2023/01/02 12:37:46;;;;;;;2.17;1.13;;;;;;;;;;5023072;28;20021;-95
2023/01/02 12:40:30;;;;;;;1.80;0.73;;;;;;;;;;5023578;28;20025;-96
2023/01/02 12:43:01;;;;;;;1.98;0.70;;;;;;;;;;5024154;28;20093;-96
2023/01/02 12:45:45;;;;;;;1.15;0.60;;;;;;;;;;5023456;28;20025;-96
2023/01/02 12:48:29;;;;;;;3.05;0.80;;;;;;;;;;5023766;28;20025;-96
2023/01/02 12:51:13;;;;;;;3.95;0.70;;;;;;;;;;5023123;28;20017;-96
2023/01/02 12:53:57;;;;;;;3.50;0.70;;;;;;;;;;5023885;28;20052;-96
2023/01/02 12:56:37;;;;;;;1.98;0.50;;;;;;;;;;5023146;28;20049;-96
2023/01/02 12:59:27;;;;;;;1.92;0.80;;;;;;;;;;5023345;28;20025;-96
2023/01/02 13:02:10;;;;;;;0.80;0.45;;;;;;;;;;5022519;28;20075;-96
2023/01/02 13:04:39;;;;;;;1.80;0.50;;;;;;;;;;5021805;28;20125;-96
2023/01/02 13:07:09;;;;;;;0.82;0.55;;;;;;;;;;5021936;28;20030;-96
2023/01/02 13:09:39;;;;;;;2.33;1.00;;;;;;;;;;5022014;28;20021;-96
2023/01/02 13:12:09;;;;;;;1.77;0.90;;;;;;;;;;5022049;28;20086;-96
2023/01/02 13:14:40;;;;;;;2.30;0.50;;;;;;;;;;5022650;28;20037;-96
2023/01/02 13:17:11;;;;;;;1.42;0.60;;;;;;;;;;5023972;28;20349;-96
2023/01/02 13:19:38;;;;;;;3.33;0.80;;;;;;;;;;5022459;28;20079;-96
2023/01/02 13:22:19;;;;;;;2.38;0.77;;;;;;;;;;5022885;28;20018;-96
2023/01/02 13:24:45;;;;;;;4.07;0.75;;;;;;;;;;5020852;28;20503;-95
2023/01/02 13:27:10;;;;;;;2.42;0.90;;;;;;;;;;5019192;28;20024;-95
2023/01/02 13:29:41;;;;;;;0.70;0.50;;;;;;;;;;5020711;28;20025;-96
2023/01/02 13:32:08;;;;;;;2.38;1.02;;;;;;;;;;5020258;28;20025;-96
2023/01/02 13:34:34;;;;;;;4.03;0.75;;;;;;;;;;5019030;28;20060;-96
2023/01/02 13:37:20;;;;;;;3.25;1.30;;;;;;;;;;5019072;28;20028;-95
2023/01/02 13:39:46;;;;;;;2.88;0.85;;;;;;;;;;5019607;28;20025;-95
2023/01/02 13:45:24;;;;;;;3.25;1.10;;;;;;;;;;5037066;28;20383;-96
2023/01/02 13:47:51;;;;;;;4.40;1.20;;;;;;;;;;5018634;28;20025;-95
2023/01/02 13:50:34;;;;;;;2.22;1.13;;;;;;;;;;5020297;28;20483;-96
2023/01/02 13:53:08;;;;;;;3.42;1.02;;;;;;;;;;5019176;28;20021;-96
2023/01/02 13:55:54;;;;;;;2.08;1.50;;;;;;;;;;5020096;28;20051;-95
2023/01/02 13:58:37;;;;;;;6.35;1.00;;;;;;;;;;5170550;27;20376;-95
2023/01/02 14:01:22;;;;;;;3.08;0.90;;;;;;;;;;5137946;28;20023;-95
2023/01/02 14:04:06;;;;;;;3.63;0.93;;;;;;;;;;5137800;28;20016;-96
2023/01/02 14:06:32;;;;;;;6.00;0.90;;;;;;;;;;5138606;28;20019;-96
2023/01/02 14:09:03;;;;;;;3.95;1.00;;;;;;;;;;5136566;28;20530;-96
2023/01/02 14:11:41;;;;;;;4.40;0.73;;;;;;;;;;5136672;27;20073;-96
2023/01/02 14:14:12;;;;;;;1.85;0.88;;;;;;;;;;5136140;28;20019;-95
2023/01/02 14:16:40;;;;;;;2.58;1.23;;;;;;;;;;5135957;28;20019;-96
2023/01/02 14:19:12;;;;;;;5.00;0.98;;;;;;;;;;5135178;27;20015;-96
2023/01/02 14:21:56;;;;;;;5.43;1.20;;;;;;;;;;5134742;27;20020;-96
2023/01/02 14:24:30;;;;;;;1.60;0.65;;;;;;;;;;5135176;28;20019;-96
2023/01/02 14:27:03;;;;;;;7.88;1.48;;;;;;;;;;5134092;28;20087;-95
2023/01/02 14:29:29;;;;;;;5.68;1.10;;;;;;;;;;5134291;28;20020;-96
2023/01/02 14:32:02;;;;;;;3.25;1.10;;;;;;;;;;5133988;28;20102;-96
2023/01/02 14:34:27;;;;;;;8.95;1.55;;;;;;;;;;5133070;28;20408;-96
2023/01/02 14:36:55;;;;;;;1.80;0.80;;;;;;;;;;5134086;28;20019;-96
2023/01/02 14:39:32;;;;;;;3.35;1.00;;;;;;;;;;5134829;28;20024;-96
2023/01/02 14:45:03;;;;;;;5.07;1.10;;;;;;;;;;5136911;28;20045;-96
2023/01/02 14:47:34;;;;;;;5.25;1.05;;;;;;;;;;5134743;28;20051;-96
2023/01/02 14:50:01;;;;;;;6.18;0.93;;;;;;;;;;5134222;28;20110;-96
2023/01/02 14:52:30;;;;;;;3.13;0.95;;;;;;;;;;5135434;28;20045;-96
2023/01/02 14:54:58;;;;;;;4.00;0.82;;;;;;;;;;5135001;28;20008;-96
2023/01/02 14:57:27;;;;;;;3.05;1.00;;;;;;;;;;5134627;28;20043;-96
2023/01/02 14:59:52;;;;;;;3.83;0.80;;;;;;;;;;5133223;28;20350;-95
2023/01/02 15:02:22;;;;;;;2.20;0.70;;;;;;;;;;5135366;28;20023;-96
2023/01/02 15:04:53;;;;;;;4.60;1.75;;;;;;;;;;5134869;28;20019;-96
2023/01/02 15:07:18;;;;;;;5.70;1.15;;;;;;;;;;5133547;28;20020;-96
2023/01/02 15:09:50;;;;;;;3.05;1.50;;;;;;;;;;5121045;27;20059;-96